Time;durP1;ratioP1;P1;durP2;ratioP2;P2;SDS_P1;SDS_P2;PMS_P1;PMS_P2;Temp;Humidity;BMP_temperature;BMP_pressure;BME280_temperature;BME280_humidity;BME280_pressure;Samples;Min_cycle;Max_cycle;Signal;HPM_P1;HPM_P2
2023/06/27 00:01:50;;;;;;;6.82;5.38;;;25.10;29.60;;;;;;5089312;28;20186;-75
2023/06/27 00:04:16;;;;;;;7.03;4.47;;;25.10;29.90;;;;;;5094480;28;20027;-74
2023/06/27 00:06:45;;;;;;;9.45;5.15;;;25.10;44.40;;;;;;5095714;28;20103;-75
2023/06/27 00:09:11;;;;;;;11.13;5.55;;;25.10;35.50;;;;;;5077169;28;20383;-74
2023/06/27 00:11:40;;;;;;;9.23;5.47;;;25.10;31.10;;;;;;5095342;28;20034;-74
2023/06/27 00:14:08;;;;;;;6.22;4.82;;;25.00;54.00;;;;;;5095073;28;20511;-74
2023/06/27 00:16:35;;;;;;;6.65;5.45;;;25.00;47.10;;;;;;5095233;28;20028;-74
2023/06/27 00:19:02;;;;;;;5.47;4.97;;;25.00;37.40;;;;;;5095452;28;20483;-74
2023/06/27 00:21:28;;;;;;;7.75;4.95;;;25.00;33.70;;;;;;5095257;28;20020;-74
2023/06/27 00:23:56;;;;;;;8.88;4.97;;;25.00;44.10;;;;;;5095140;28;20027;-74
2023/06/27 00:26:22;;;;;;;6.30;5.40;;;25.00;34.60;;;;;;5060958;28;20032;-75
2023/06/27 00:28:48;;;;;;;8.23;5.00;;;25.10;18.90;;;;;;5074871;28;20025;-74
2023/06/27 00:31:14;;;;;;;7.90;5.55;;;25.10;2.80;;;;;;5084067;28;20094;-75
2023/06/27 00:33:40;;;;;;;6.80;5.15;;;25.00;4.30;;;;;;5094815;28;20032;-75
2023/06/27 00:36:09;;;;;;;8.43;5.68;;;25.00;2.90;;;;;;5093692;28;20032;-74
2023/06/27 00:38:35;;;;;;;7.15;4.65;;;25.10;6.20;;;;;;5095213;28;20112;-74
2023/06/27 00:41:01;;;;;;;6.68;5.03;;;25.00;1.00;;;;;;5094830;28;20052;-74
2023/06/27 00:43:30;;;;;;;8.27;5.45;;;25.10;1.00;;;;;;5094881;28;20020;-74
2023/06/27 00:45:56;;;;;;;7.43;5.18;;;25.00;1.00;;;;;;5094712;28;20485;-75
2023/06/27 00:48:22;;;;;;;6.05;5.32;;;25.00;1.00;;;;;;5094771;28;20024;-75
2023/06/27 00:50:49;;;;;;;9.90;5.28;;;25.00;1.00;;;;;;5094541;28;20020;-75
2023/06/27 00:53:15;;;;;;;6.95;5.00;;;25.00;1.00;;;;;;5092738;28;20489;-75
2023/06/27 00:55:41;;;;;;;5.50;4.88;;;25.00;1.00;;;;;;5094373;28;20059;-74
2023/06/27 00:58:10;;;;;;;7.80;5.03;;;25.00;1.00;;;;;;5092749;28;20044;-75
2023/06/27 01:00:36;;;;;;;8.95;4.88;;;25.00;1.00;;;;;;5094150;28;20072;-75
2023/06/27 01:03:03;;;;;;;6.43;5.00;;;25.00;1.00;;;;;;5094448;28;20419;-74
2023/06/27 01:05:29;;;;;;;8.02;5.93;;;24.90;1.00;;;;;;5094367;28;20367;-75
2023/06/27 01:08:01;;;;;;;6.95;5.05;;;25.00;1.00;;;;;;5075477;28;20043;-75
2023/06/27 01:10:38;;;;;;;8.90;5.40;;;25.00;1.00;;;;;;5073935;28;20117;-74
2023/06/27 01:13:27;;;;;;;6.90;5.90;;;25.00;1.00;;;;;;5073932;28;20501;-74
2023/06/27 01:15:53;;;;;;;7.03;4.75;;;25.00;1.00;;;;;;5091326;28;20021;-75
2023/06/27 01:18:21;;;;;;;6.50;4.90;;;25.10;1.00;;;;;;5075784;28;20477;-74
2023/06/27 01:20:49;;;;;;;5.53;5.03;;;25.10;1.00;;;;;;5094177;28;20107;-74
2023/06/27 01:23:22;;;;;;;5.97;5.35;;;25.10;1.00;;;;;;5078231;28;20432;-75
2023/06/27 01:25:50;;;;;;;9.93;5.57;;;25.10;1.00;;;;;;5073612;28;20024;-74
2023/06/27 01:28:17;;;;;;;5.75;5.20;;;25.00;1.00;;;;;;5073779;28;20035;-74
2023/06/27 01:30:43;;;;;;;5.63;5.00;;;25.00;1.00;;;;;;5073683;28;20086;-74
2023/06/27 01:33:28;;;;;;;5.45;4.60;;;25.00;1.00;;;;;;5073373;28;20052;-75
2023/06/27 01:35:57;;;;;;;12.45;5.38;;;25.00;6.90;;;;;;5075105;28;20030;-74
2023/06/27 01:38:44;;;;;;;5.78;5.15;;;24.90;28.30;;;;;;5086770;28;20016;-75
2023/06/27 01:41:12;;;;;;;9.10;5.43;;;24.90;6.60;;;;;;5073884;28;20020;-75
2023/06/27 01:43:40;;;;;;;6.10;4.82;;;25.00;5.50;;;;;;5073457;28;20021;-75
2023/06/27 01:46:08;;;;;;;7.75;5.10;;;24.90;18.50;;;;;;5092747;28;20110;-74
2023/06/27 01:48:36;;;;;;;7.78;5.53;;;24.90;29.60;;;;;;5093692;28;20038;-74
2023/06/27 01:51:07;;;;;;;7.40;4.82;;;24.90;38.40;;;;;;5089427;28;20025;-74
2023/06/27 01:53:32;;;;;;;6.70;5.50;;;24.80;33.30;;;;;;5093539;28;20035;-74
2023/06/27 01:55:58;;;;;;;5.53;5.03;;;24.80;25.80;;;;;;5093311;28;20031;-74
2023/06/27 01:58:24;;;;;;;8.25;5.55;;;24.80;53.80;;;;;;5075375;28;20027;-74
2023/06/27 02:00:50;;;;;;;5.50;5.10;;;24.70;31.40;;;;;;5075497;28;20036;-74
2023/06/27 02:03:16;;;;;;;8.95;5.13;;;24.70;51.30;;;;;;5075815;28;20032;-75
2023/06/27 02:05:41;;;;;;;6.30;4.80;;;24.70;51.90;;;;;;5093466;28;20048;-74
2023/06/27 02:08:07;;;;;;;5.22;4.72;;;24.70;53.90;;;;;;5093409;28;20557;-74
2023/06/27 02:10:33;;;;;;;5.38;4.88;;;24.70;63.00;;;;;;5085425;28;20025;-74
2023/06/27 02:13:01;;;;;;;7.68;5.53;;;24.70;65.50;;;;;;5055084;28;20040;-74
2023/06/27 02:15:26;;;;;;;6.13;5.30;;;24.70;50.90;;;;;;5068523;28;20073;-74
2023/06/27 02:17:52;;;;;;;7.03;5.47;;;24.60;64.70;;;;;;5093121;28;20024;-74
2023/06/27 02:20:18;;;;;;;7.90;5.60;;;24.60;81.50;;;;;;5091740;28;20500;-74
2023/06/27 02:22:43;;;;;;;5.72;5.22;;;24.60;47.70;;;;;;5093171;28;20028;-75
2023/06/27 02:25:09;;;;;;;6.38;5.18;;;24.60;67.50;;;;;;5092956;28;20160;-74
2023/06/27 02:27:35;;;;;;;6.78;5.53;;;24.60;48.10;;;;;;5092694;28;20116;-74
2023/06/27 02:30:01;;;;;;;10.45;5.53;;;24.60;24.20;;;;;;5092872;28;20030;-75
2023/06/27 02:32:27;;;;;;;6.07;5.00;;;24.60;28.10;;;;;;5076255;28;20078;-74
2023/06/27 02:34:52;;;;;;;8.50;5.22;;;24.60;37.60;;;;;;5082579;28;20016;-74
2023/06/27 02:37:18;;;;;;;8.88;4.75;;;24.60;80.30;;;;;;5092976;28;20395;-74
2023/06/27 02:39:44;;;;;;;5.65;4.88;;;24.60;87.90;;;;;;5074820;28;20024;-75
2023/06/27 02:42:09;;;;;;;7.32;4.75;;;24.50;99.90;;;;;;5092955;28;20055;-74
2023/06/27 02:44:35;;;;;;;9.80;5.20;;;24.50;99.90;;;;;;5092752;28;20478;-74
2023/06/27 02:47:01;;;;;;;4.97;4.40;;;24.40;99.90;;;;;;5079362;28;20029;-74
2023/06/27 02:49:26;;;;;;;9.88;5.05;;;24.40;99.90;;;;;;5072629;28;20047;-74
2023/06/27 02:51:52;;;;;;;7.30;4.60;;;24.40;99.90;;;;;;5078529;28;20390;-74
2023/06/27 02:54:18;;;;;;;6.90;4.97;;;24.40;99.90;;;;;;5079364;28;20016;-75
2023/06/27 02:56:44;;;;;;;7.60;5.32;;;24.40;99.90;;;;;;5072602;28;20033;-74
2023/06/27 02:59:10;;;;;;;11.20;5.07;;;24.40;99.90;;;;;;5082285;28;20012;-75
2023/06/27 03:01:35;;;;;;;8.88;5.70;;;24.30;99.90;;;;;;5086005;28;20159;-74
2023/06/27 03:04:02;;;;;;;7.60;4.90;;;24.30;99.90;;;;;;5075107;28;20540;-75
2023/06/27 03:06:27;;;;;;;5.60;5.03;;;24.30;99.90;;;;;;5092769;28;20101;-74
2023/06/27 03:08:54;;;;;;;5.47;4.97;;;24.30;99.90;;;;;;5092638;28;20634;-74
2023/06/27 03:11:20;;;;;;;5.85;5.03;;;24.30;99.90;;;;;;5092732;28;20024;-74
2023/06/27 03:13:46;;;;;;;6.22;5.10;;;24.30;99.90;;;;;;5092338;28;20035;-75
2023/06/27 03:16:11;;;;;;;5.78;5.13;;;24.30;99.90;;;;;;5092405;28;20024;-75
2023/06/27 03:18:37;;;;;;;5.57;4.43;;;24.30;99.90;;;;;;5092629;28;20027;-74
2023/06/27 03:21:03;;;;;;;5.15;4.65;;;24.30;99.90;;;;;;5092833;28;20425;-75
2023/06/27 03:23:28;;;;;;;8.68;5.22;;;24.30;99.90;;;;;;5092456;28;20107;-74
2023/06/27 03:25:57;;;;;;;6.68;5.22;;;24.20;99.90;;;;;;5074243;28;20036;-74
2023/06/27 03:28:26;;;;;;;7.20;4.97;;;24.30;99.90;;;;;;5074173;28;20069;-75
2023/06/27 03:30:52;;;;;;;7.25;5.00;;;24.20;99.90;;;;;;5075279;28;20111;-74
2023/06/27 03:33:17;;;;;;;6.90;4.88;;;24.20;99.90;;;;;;5053948;28;20115;-74
2023/06/27 03:35:43;;;;;;;6.47;5.18;;;24.20;99.90;;;;;;5072299;28;20483;-74
2023/06/27 03:38:09;;;;;;;8.30;5.22;;;24.20;99.90;;;;;;5073122;28;20072;-74
2023/06/27 03:40:34;;;;;;;8.25;5.70;;;24.20;99.90;;;;;;5080113;28;20070;-74
2023/06/27 03:43:00;;;;;;;6.18;4.85;;;24.20;99.90;;;;;;5083147;28;20031;-74
2023/06/27 03:45:26;;;;;;;5.65;4.80;;;24.20;99.90;;;;;;5071716;28;20478;-74
2023/06/27 03:47:52;;;;;;;5.80;5.13;;;24.20;99.90;;;;;;5086011;28;20032;-74
2023/06/27 03:50:20;;;;;;;5.60;5.10;;;24.20;99.90;;;;;;5082649;28;20549;-75
2023/06/27 03:52:46;;;;;;;7.13;5.18;;;24.20;99.90;;;;;;5075324;28;20040;-75
2023/06/27 03:55:12;;;;;;;6.80;4.97;;;24.20;99.90;;;;;;5077220;28;20016;-74
2023/06/27 03:57:37;;;;;;;5.40;4.82;;;24.20;99.90;;;;;;5095007;28;20498;-74
2023/06/27 04:00:07;;;;;;;8.13;5.32;;;24.10;99.90;;;;;;5089549;28;20040;-74
2023/06/27 04:02:32;;;;;;;8.63;4.63;;;24.20;99.90;;;;;;5076017;28;20135;-74
2023/06/27 04:04:58;;;;;;;8.80;5.75;;;24.10;99.90;;;;;;5092037;28;20165;-74
2023/06/27 04:07:24;;;;;;;6.00;5.43;;;24.10;99.90;;;;;;5095459;28;20028;-74
2023/06/27 04:09:49;;;;;;;9.05;5.57;;;24.20;99.90;;;;;;5084333;28;20032;-75
2023/06/27 04:12:15;;;;;;;5.75;5.15;;;24.10;99.90;;;;;;5057294;28;20103;-74
2023/06/27 04:14:41;;;;;;;10.93;5.63;;;24.10;99.90;;;;;;5082417;28;20477;-74
2023/06/27 04:17:07;;;;;;;6.03;5.47;;;24.10;99.90;;;;;;5095194;28;20103;-74
2023/06/27 04:19:32;;;;;;;5.95;4.75;;;24.10;99.90;;;;;;5095304;28;20024;-75
2023/06/27 04:21:58;;;;;;;9.48;5.20;;;24.10;99.90;;;;;;5081623;28;20013;-71
2023/06/27 04:24:24;;;;;;;5.35;4.75;;;24.00;99.90;;;;;;5081936;28;20039;-71
2023/06/27 04:26:49;;;;;;;6.10;5.13;;;24.10;99.90;;;;;;5076440;28;20024;-71
2023/06/27 04:29:15;;;;;;;5.78;5.25;;;24.00;99.90;;;;;;5080783;28;20057;-71
2023/06/27 04:31:41;;;;;;;7.63;4.97;;;24.00;99.90;;;;;;5082029;28;20055;-71
2023/06/27 04:34:08;;;;;;;8.65;5.85;;;24.00;99.90;;;;;;5081522;28;20034;-71
2023/06/27 04:36:36;;;;;;;5.82;5.22;;;24.10;99.90;;;;;;5080667;28;20075;-71
2023/06/27 04:39:03;;;;;;;7.85;5.63;;;24.10;99.90;;;;;;5082247;28;20039;-71
2023/06/27 04:41:29;;;;;;;6.07;5.50;;;24.10;99.90;;;;;;5081103;28;20020;-71
2023/06/27 04:43:57;;;;;;;6.60;5.63;;;24.10;99.90;;;;;;5080673;28;20070;-72
2023/06/27 04:46:26;;;;;;;6.88;5.50;;;24.20;99.90;;;;;;5074585;28;20390;-72
2023/06/27 04:48:54;;;;;;;8.02;5.18;;;24.20;99.90;;;;;;5076447;28;20044;-72
2023/06/27 04:51:19;;;;;;;6.22;5.63;;;24.20;99.90;;;;;;5080374;28;20020;-71
2023/06/27 04:53:45;;;;;;;9.38;5.40;;;24.20;99.90;;;;;;5066605;28;20436;-72
2023/06/27 04:56:11;;;;;;;7.28;4.88;;;24.20;99.90;;;;;;5081632;28;20112;-72
2023/06/27 04:58:37;;;;;;;11.23;5.53;;;24.20;99.90;;;;;;5084007;28;20020;-71
2023/06/27 05:01:02;;;;;;;7.65;4.82;;;24.30;99.90;;;;;;5061056;28;20080;-72
2023/06/27 05:03:29;;;;;;;5.45;4.90;;;24.30;99.90;;;;;;5081026;28;20024;-72
2023/06/27 05:05:55;;;;;;;6.40;5.70;;;24.40;99.90;;;;;;5078557;28;20664;-71
2023/06/27 05:08:20;;;;;;;9.48;5.93;;;24.40;99.90;;;;;;5084246;28;20020;-72
2023/06/27 05:10:46;;;;;;;14.68;6.03;;;24.40;99.90;;;;;;5088199;28;20024;-72
2023/06/27 05:13:12;;;;;;;6.72;5.30;;;24.40;99.90;;;;;;5091997;28;20020;-72
2023/06/27 05:15:38;;;;;;;9.20;5.60;;;24.50;99.90;;;;;;5086965;28;20030;-72
2023/06/27 05:18:06;;;;;;;6.30;5.43;;;24.60;99.90;;;;;;5091952;28;20031;-72
2023/06/27 05:20:32;;;;;;;5.70;5.10;;;24.60;99.90;;;;;;5087905;28;20024;-71
2023/06/27 05:22:58;;;;;;;7.07;5.28;;;24.70;99.90;;;;;;5072654;28;20032;-71
2023/06/27 05:25:23;;;;;;;7.53;5.45;;;24.80;99.90;;;;;;5068945;28;20039;-71
2023/06/27 05:27:49;;;;;;;10.07;5.70;;;24.90;99.90;;;;;;5081541;28;20047;-72
2023/06/27 05:30:15;;;;;;;10.32;5.63;;;24.90;99.90;;;;;;5087716;28;20020;-72
2023/06/27 05:32:40;;;;;;;5.97;5.18;;;24.90;99.90;;;;;;5091711;28;20041;-72
2023/06/27 05:35:07;;;;;;;8.80;5.43;;;25.00;99.90;;;;;;5084228;28;20039;-72
2023/06/27 05:37:36;;;;;;;7.93;5.43;;;25.10;99.90;;;;;;5081173;28;20020;-72
2023/06/27 05:40:02;;;;;;;9.85;5.53;;;25.10;99.90;;;;;;5080891;28;20024;-72
2023/06/27 05:42:28;;;;;;;7.75;5.38;;;25.10;99.90;;;;;;5076846;28;20435;-72
2023/06/27 05:44:54;;;;;;;7.70;5.00;;;25.20;99.90;;;;;;5083764;28;20020;-72
2023/06/27 05:47:20;;;;;;;12.65;5.55;;;25.20;99.90;;;;;;5078671;28;20024;-72
2023/06/27 05:49:47;;;;;;;6.72;5.43;;;25.30;99.90;;;;;;5078308;28;20108;-72
2023/06/27 05:52:13;;;;;;;11.13;5.72;;;25.30;99.90;;;;;;5069576;28;20024;-72
2023/06/27 05:54:41;;;;;;;8.18;5.55;;;25.30;99.90;;;;;;5079708;28;20027;-72
2023/06/27 05:57:07;;;;;;;6.88;5.38;;;25.30;99.90;;;;;;5076290;28;20114;-72
2023/06/27 05:59:33;;;;;;;11.30;5.40;;;25.40;99.90;;;;;;5085314;28;20106;-71
2023/06/27 06:01:59;;;;;;;10.57;6.18;;;25.50;99.90;;;;;;5081516;28;20178;-72
2023/06/27 06:04:27;;;;;;;9.20;5.38;;;25.50;99.90;;;;;;5082191;28;20557;-72
2023/06/27 06:06:53;;;;;;;9.20;5.60;;;25.50;99.90;;;;;;5077755;28;20390;-72
2023/06/27 06:09:19;;;;;;;9.20;5.57;;;25.50;99.90;;;;;;5088577;28;20032;-72
2023/06/27 06:11:45;;;;;;;6.03;5.13;;;25.50;99.90;;;;;;5083183;28;20082;-71
2023/06/27 06:14:10;;;;;;;11.60;5.45;;;25.70;1.00;;;;;;5081108;28;20430;-72
2023/06/27 06:16:36;;;;;;;8.07;5.93;;;25.70;1.00;;;;;;5079172;28;20105;-72
2023/06/27 06:19:03;;;;;;;10.25;6.15;;;25.70;1.00;;;;;;5080362;28;20019;-72
2023/06/27 06:21:30;;;;;;;8.27;5.32;;;25.70;1.00;;;;;;5082364;28;20024;-72
2023/06/27 06:23:56;;;;;;;10.80;5.15;;;25.80;99.90;;;;;;5080452;28;20024;-72
2023/06/27 06:26:22;;;;;;;8.52;5.88;;;25.90;99.90;;;;;;5081482;28;20078;-72
2023/06/27 06:28:48;;;;;;;11.55;5.70;;;25.90;99.90;;;;;;5080396;28;20024;-72
2023/06/27 06:31:17;;;;;;;10.32;5.50;;;26.00;99.90;;;;;;5073192;28;20034;-72
2023/06/27 06:33:44;;;;;;;9.30;6.10;;;26.10;99.90;;;;;;5091417;28;20024;-72
2023/06/27 06:36:10;;;;;;;11.63;6.18;;;26.20;99.90;;;;;;5087614;28;20020;-72
2023/06/27 06:38:36;;;;;;;10.10;5.53;;;26.30;99.90;;;;;;5088532;28;20533;-72
2023/06/27 06:41:02;;;;;;;9.38;5.80;;;26.40;99.90;;;;;;5080190;28;20119;-72
2023/06/27 06:43:28;;;;;;;10.63;6.40;;;26.40;99.90;;;;;;5080662;28;20478;-71
2023/06/27 06:45:54;;;;;;;6.32;5.45;;;26.50;99.90;;;;;;5078552;28;20025;-72
2023/06/27 06:48:20;;;;;;;7.65;5.70;;;26.60;99.90;;;;;;5083721;28;20024;-72
2023/06/27 06:50:47;;;;;;;5.72;4.97;;;26.60;99.90;;;;;;5078601;28;20032;-72
2023/06/27 06:53:13;;;;;;;5.88;5.25;;;26.70;99.90;;;;;;5066081;28;20036;-72
2023/06/27 06:55:39;;;;;;;9.85;6.13;;;26.80;1.00;;;;;;5078770;28;20020;-71
2023/06/27 06:58:04;;;;;;;7.38;5.60;;;26.90;99.90;;;;;;5079181;28;20033;-72
2023/06/27 07:00:30;;;;;;;9.10;5.97;;;26.90;99.90;;;;;;5078465;28;20043;-71
2023/06/27 07:02:57;;;;;;;7.35;5.85;;;27.00;99.90;;;;;;5064356;28;20036;-72
2023/06/27 07:05:22;;;;;;;6.22;5.63;;;27.10;99.90;;;;;;5079651;28;20427;-72
2023/06/27 07:07:48;;;;;;;9.35;6.85;;;27.20;99.90;;;;;;5080639;28;20146;-75
2023/06/27 07:10:14;;;;;;;15.90;7.38;;;27.20;99.90;;;;;;5084719;28;20115;-72
2023/06/27 07:12:40;;;;;;;6.45;5.80;;;27.20;99.90;;;;;;5082492;28;20032;-72
2023/06/27 07:15:07;;;;;;;9.88;5.80;;;27.30;1.00;;;;;;5080333;28;20029;-71
2023/06/27 07:17:33;;;;;;;9.27;5.63;;;27.40;99.90;;;;;;5070902;28;20023;-71
2023/06/27 07:19:59;;;;;;;9.73;6.10;;;27.40;98.40;;;;;;5080904;28;20371;-72
2023/06/27 07:22:25;;;;;;;5.95;5.35;;;27.50;99.90;;;;;;5061610;28;20028;-71
2023/06/27 07:24:51;;;;;;;7.68;6.70;;;27.60;99.90;;;;;;5064730;28;20073;-71
2023/06/27 07:27:19;;;;;;;9.13;6.40;;;27.60;99.90;;;;;;5079212;28;20027;-71
2023/06/27 07:29:45;;;;;;;9.75;5.70;;;27.70;99.90;;;;;;5083797;28;20650;-71
2023/06/27 07:32:11;;;;;;;7.30;5.82;;;27.70;99.90;;;;;;5077247;28;20060;-71
2023/06/27 07:34:39;;;;;;;9.27;6.38;;;27.70;99.90;;;;;;5082249;28;20412;-72
2023/06/27 07:37:08;;;;;;;7.30;6.05;;;27.80;99.90;;;;;;5064160;28;20032;-72
2023/06/27 07:39:36;;;;;;;11.65;5.25;;;27.90;99.90;;;;;;5080845;28;20027;-72
2023/06/27 07:42:03;;;;;;;9.90;5.47;;;28.00;99.90;;;;;;5077974;28;20021;-72
2023/06/27 07:44:29;;;;;;;7.35;5.80;;;28.00;98.30;;;;;;5083799;28;20021;-71
2023/06/27 07:46:55;;;;;;;7.47;5.28;;;28.10;99.00;;;;;;5085402;28;20509;-71
2023/06/27 07:49:20;;;;;;;8.68;5.15;;;28.20;98.00;;;;;;5083744;28;20596;-72
2023/06/27 07:51:51;;;;;;;7.78;6.18;;;28.20;94.50;;;;;;5082087;28;20043;-71
2023/06/27 07:54:17;;;;;;;9.88;5.78;;;28.20;95.70;;;;;;5083336;28;20028;-72
2023/06/27 07:56:43;;;;;;;14.13;5.70;;;28.20;94.70;;;;;;5079936;28;20027;-72
2023/06/27 07:59:08;;;;;;;12.52;5.68;;;28.30;96.20;;;;;;5083249;28;20016;-72
2023/06/27 08:01:35;;;;;;;12.00;6.82;;;28.30;97.10;;;;;;5085590;28;20527;-72
2023/06/27 08:04:01;;;;;;;11.80;6.43;;;28.30;99.30;;;;;;5082739;28;20024;-71
2023/06/27 08:06:27;;;;;;;10.93;6.05;;;28.40;98.50;;;;;;5066005;28;20035;-72
2023/06/27 08:08:55;;;;;;;11.93;5.82;;;28.40;98.80;;;;;;5084516;28;20023;-72
2023/06/27 08:11:21;;;;;;;9.80;6.45;;;28.40;98.70;;;;;;5078380;28;20028;-72
2023/06/27 08:13:47;;;;;;;8.93;6.25;;;28.40;96.60;;;;;;5084114;28;20381;-72
2023/06/27 08:16:13;;;;;;;11.05;6.22;;;28.40;96.80;;;;;;5079155;28;20029;-72
2023/06/27 08:18:38;;;;;;;9.90;5.97;;;28.50;97.00;;;;;;5081493;28;20066;-71
2023/06/27 08:21:04;;;;;;;8.95;5.88;;;28.60;96.40;;;;;;5065029;28;20055;-71
2023/06/27 08:23:30;;;;;;;10.98;6.57;;;28.60;96.00;;;;;;5079509;28;20028;-71
2023/06/27 08:25:55;;;;;;;12.63;6.10;;;28.70;94.60;;;;;;5079835;28;20043;-71
2023/06/27 08:28:21;;;;;;;8.80;5.75;;;28.80;95.90;;;;;;5067820;28;20035;-72
2023/06/27 08:30:47;;;;;;;9.00;5.60;;;28.90;94.10;;;;;;5080056;28;20170;-71
2023/06/27 08:33:13;;;;;;;8.32;6.15;;;28.80;93.90;;;;;;5081499;28;20107;-72
2023/06/27 08:35:39;;;;;;;11.35;5.72;;;28.90;93.20;;;;;;5083006;28;20410;-72
2023/06/27 08:38:05;;;;;;;9.90;6.65;;;28.80;92.50;;;;;;5062540;28;20025;-72
2023/06/27 08:40:35;;;;;;;7.35;5.60;;;28.90;92.20;;;;;;5066295;28;20036;-71
2023/06/27 08:43:02;;;;;;;9.10;5.75;;;28.90;93.10;;;;;;5079466;28;20024;-72
2023/06/27 08:45:28;;;;;;;9.13;6.32;;;29.00;92.90;;;;;;5079951;28;20029;-71
2023/06/27 08:47:54;;;;;;;7.32;6.05;;;29.00;92.50;;;;;;5081629;28;20136;-71
2023/06/27 08:50:21;;;;;;;14.75;6.78;;;29.00;92.10;;;;;;5061753;28;20033;-72
2023/06/27 08:53:03;;;;;;;8.02;5.82;;;28.90;92.50;;;;;;5067452;28;20081;-71
2023/06/27 08:55:38;;;;;;;11.95;6.40;;;29.10;92.70;;;;;;5066821;28;20478;-72
2023/06/27 08:58:06;;;;;;;14.23;7.13;;;29.10;92.50;;;;;;5061823;28;20294;-72
2023/06/27 09:00:36;;;;;;;7.90;5.88;;;29.20;92.00;;;;;;5080508;28;20016;-71
2023/06/27 09:03:04;;;;;;;7.75;6.20;;;29.20;92.00;;;;;;5079195;28;20025;-72
2023/06/27 09:05:34;;;;;;;13.27;6.25;;;29.20;92.60;;;;;;5079999;28;20094;-72
2023/06/27 09:07:59;;;;;;;11.00;5.28;;;29.30;93.60;;;;;;5080471;28;20051;-71
2023/06/27 09:10:26;;;;;;;11.30;6.05;;;29.50;93.70;;;;;;5065086;28;20075;-71
2023/06/27 09:12:54;;;;;;;20.08;6.88;;;29.50;93.20;;;;;;5076427;28;20028;-72
2023/06/27 09:15:20;;;;;;;15.02;6.05;;;29.60;92.40;;;;;;5084594;28;20031;-71
2023/06/27 09:17:49;;;;;;;9.60;5.97;;;29.60;92.60;;;;;;5078605;28;20330;-72
2023/06/27 09:20:17;;;;;;;9.20;6.32;;;29.70;92.90;;;;;;5079642;28;20059;-71
2023/06/27 09:22:44;;;;;;;13.35;6.38;;;29.80;92.90;;;;;;5080599;28;20031;-71
2023/06/27 09:25:10;;;;;;;12.70;6.80;;;29.80;92.20;;;;;;5081142;28;20031;-71
2023/06/27 09:27:37;;;;;;;11.63;6.70;;;29.70;93.30;;;;;;5076133;28;20110;-72
2023/06/27 09:30:05;;;;;;;11.45;6.15;;;29.80;91.80;;;;;;5064915;28;20026;-72
2023/06/27 09:32:31;;;;;;;9.65;5.82;;;29.80;92.60;;;;;;5082672;28;20020;-71
2023/06/27 09:35:00;;;;;;;11.63;6.43;;;29.80;93.60;;;;;;5077403;28;20375;-73
2023/06/27 09:37:34;;;;;;;8.70;5.78;;;29.90;92.80;;;;;;5079074;28;20411;-72
2023/06/27 09:40:25;;;;;;;9.40;5.47;;;29.90;92.50;;;;;;5078482;28;20032;-71
2023/06/27 09:42:58;;;;;;;10.50;6.13;;;30.00;91.90;;;;;;5078287;28;20032;-71
2023/06/27 09:45:29;;;;;;;7.50;6.20;;;30.00;91.90;;;;;;5080576;28;20557;-72
2023/06/27 09:47:55;;;;;;;13.60;6.57;;;30.10;91.90;;;;;;5077498;28;20070;-72
2023/06/27 09:50:28;;;;;;;10.48;5.88;;;30.20;91.60;;;;;;5079584;28;20052;-72
2023/06/27 09:53:02;;;;;;;9.23;5.72;;;30.20;91.00;;;;;;5059950;28;20028;-72
2023/06/27 09:55:28;;;;;;;7.70;6.43;;;30.20;90.10;;;;;;5063507;28;20046;-71
2023/06/27 09:57:54;;;;;;;9.95;6.40;;;30.30;90.00;;;;;;5080141;28;20545;-71
2023/06/27 10:00:22;;;;;;;12.75;5.72;;;30.20;87.70;;;;;;5082971;28;20021;-72
2023/06/27 10:02:48;;;;;;;9.27;5.63;;;30.40;91.70;;;;;;5085063;28;20012;-72
2023/06/27 10:05:16;;;;;;;14.82;7.20;;;30.40;90.60;;;;;;5084102;28;20032;-71
2023/06/27 10:07:44;;;;;;;10.10;6.00;;;30.40;90.80;;;;;;5077368;28;20051;-71
2023/06/27 10:10:11;;;;;;;11.70;6.05;;;30.40;90.10;;;;;;5076875;28;20030;-72
2023/06/27 10:12:37;;;;;;;10.30;6.35;;;30.30;89.70;;;;;;5080184;28;20031;-72
2023/06/27 10:15:04;;;;;;;7.55;6.13;;;30.40;90.10;;;;;;5079768;28;20021;-71
2023/06/27 10:17:31;;;;;;;9.32;5.93;;;30.40;88.80;;;;;;5057632;28;20095;-71
2023/06/27 10:19:57;;;;;;;7.25;6.18;;;30.40;87.80;;;;;;5081980;28;20028;-71
2023/06/27 10:22:29;;;;;;;13.75;6.82;;;30.50;90.70;;;;;;5077198;28;20024;-71
2023/06/27 10:25:01;;;;;;;13.02;6.60;;;30.60;90.30;;;;;;5077872;28;20482;-71
2023/06/27 10:27:27;;;;;;;7.05;6.20;;;30.70;90.70;;;;;;5065997;28;20028;-71
2023/06/27 10:29:53;;;;;;;7.30;6.18;;;30.80;91.40;;;;;;5079150;28;20074;-71
2023/06/27 10:32:19;;;;;;;13.90;7.75;;;30.80;91.00;;;;;;5077677;28;20474;-71
2023/06/27 10:34:45;;;;;;;9.32;7.10;;;31.00;90.80;;;;;;5081122;28;20020;-72
2023/06/27 10:37:25;;;;;;;11.32;7.13;;;31.10;90.80;;;;;;5078883;28;20035;-71
2023/06/27 10:40:00;;;;;;;12.07;6.13;;;31.20;90.40;;;;;;5060985;28;20425;-71
2023/06/27 10:42:31;;;;;;;8.15;7.35;;;31.30;89.20;;;;;;5077457;28;20024;-71
2023/06/27 10:45:01;;;;;;;10.35;6.88;;;31.30;87.80;;;;;;5077938;28;20044;-71
2023/06/27 10:47:29;;;;;;;8.95;7.25;;;31.50;90.50;;;;;;5080098;28;20028;-72
2023/06/27 10:50:03;;;;;;;12.20;6.82;;;31.50;90.60;;;;;;5083299;28;20482;-71
2023/06/27 10:52:29;;;;;;;6.97;6.20;;;31.60;90.90;;;;;;5079121;28;20478;-72
2023/06/27 10:55:13;;;;;;;8.00;6.18;;;31.60;90.20;;;;;;5085412;28;20035;-72
2023/06/27 10:57:40;;;;;;;7.22;5.95;;;31.70;88.00;;;;;;5085373;28;20024;-71
2023/06/27 11:00:22;;;;;;;12.75;6.65;;;31.80;88.80;;;;;;5078134;28;20097;-71
2023/06/27 11:02:48;;;;;;;14.00;7.00;;;31.90;89.90;;;;;;5085228;28;20032;-71
2023/06/27 11:05:17;;;;;;;8.68;5.60;;;31.90;84.50;;;;;;5085759;28;20207;-71
2023/06/27 11:07:58;;;;;;;6.88;6.05;;;32.00;87.30;;;;;;5091279;28;20024;-71
2023/06/27 11:10:31;;;;;;;7.82;6.30;;;32.00;87.10;;;;;;5089916;28;20021;-71
2023/06/27 11:13:36;;;;;;;15.70;6.82;;;32.00;86.70;;;;;;5089674;28;20098;-71
2023/06/27 11:16:02;;;;;;;14.45;6.70;;;32.20;86.90;;;;;;4973234;28;20040;-71
2023/06/27 11:18:28;;;;;;;10.13;6.40;;;32.10;81.30;;;;;;4984527;28;20027;-71
2023/06/27 11:20:55;;;;;;;16.98;6.80;;;32.20;84.20;;;;;;5028467;28;20040;-71
2023/06/27 11:23:22;;;;;;;14.75;6.45;;;32.20;83.50;;;;;;5083679;28;20521;-72
2023/06/27 11:25:48;;;;;;;10.80;6.40;;;32.30;82.50;;;;;;5060535;28;20482;-71
2023/06/27 11:28:17;;;;;;;13.13;6.55;;;32.30;81.30;;;;;;5081390;28;20082;-71
2023/06/27 11:30:44;;;;;;;11.88;7.38;;;32.40;82.40;;;;;;5084782;28;20032;-72
2023/06/27 11:33:12;;;;;;;7.88;6.38;;;32.40;81.20;;;;;;5083982;28;20020;-72
2023/06/27 11:35:40;;;;;;;8.68;6.30;;;32.40;79.10;;;;;;5078222;28;20090;-71
2023/06/27 11:38:07;;;;;;;8.02;6.18;;;32.40;77.50;;;;;;5069984;28;20051;-71
2023/06/27 11:40:33;;;;;;;7.00;6.30;;;32.40;76.10;;;;;;5079497;28;20024;-71
2023/06/27 11:43:04;;;;;;;12.38;6.00;;;32.50;77.90;;;;;;5061944;28;20115;-72
2023/06/27 11:45:34;;;;;;;22.55;6.55;;;32.60;77.70;;;;;;5080897;28;20119;-71
2023/06/27 11:48:01;;;;;;;8.10;6.20;;;32.80;76.00;;;;;;5080035;28;20466;-71
2023/06/27 11:50:27;;;;;;;8.98;6.68;;;32.80;75.30;;;;;;5084424;28;20028;-71
2023/06/27 11:52:56;;;;;;;7.53;6.03;;;32.90;75.40;;;;;;5078818;28;20051;-71
2023/06/27 11:55:23;;;;;;;12.75;6.45;;;33.00;76.50;;;;;;5082191;28;20115;-71
2023/06/27 11:57:56;;;;;;;8.30;5.78;;;33.10;73.80;;;;;;5081575;28;20035;-72
2023/06/27 12:00:24;;;;;;;11.68;6.45;;;33.30;74.70;;;;;;5082070;28;20028;-72
2023/06/27 12:02:50;;;;;;;8.23;6.57;;;33.30;76.70;;;;;;5065405;28;20058;-71
2023/06/27 12:05:17;;;;;;;9.93;6.70;;;33.50;74.90;;;;;;5087908;28;20534;-71
2023/06/27 12:07:56;;;;;;;15.35;5.68;;;33.50;76.50;;;;;;5079020;28;20474;-71
2023/06/27 12:10:22;;;;;;;10.93;6.68;;;33.60;75.90;;;;;;5087336;28;20103;-74
2023/06/27 12:12:52;;;;;;;6.40;5.70;;;33.60;74.10;;;;;;5090807;28;20107;-74
2023/06/27 12:15:18;;;;;;;6.78;6.05;;;33.80;75.40;;;;;;5085761;28;20066;-74
2023/06/27 12:18:01;;;;;;;7.22;6.40;;;33.90;77.00;;;;;;5085889;28;20020;-74
2023/06/27 12:20:40;;;;;;;10.40;6.18;;;34.00;76.60;;;;;;5079940;28;20474;-74
2023/06/27 12:23:06;;;;;;;11.35;6.80;;;34.10;74.00;;;;;;5081653;28;20027;-74
2023/06/27 12:25:32;;;;;;;17.33;7.03;;;34.10;72.80;;;;;;5079927;28;20037;-75
2023/06/27 12:27:58;;;;;;;9.52;7.07;;;34.10;73.30;;;;;;5081609;28;20417;-74
2023/06/27 12:30:23;;;;;;;11.15;7.18;;;34.10;72.40;;;;;;5082460;28;20222;-74
2023/06/27 12:32:49;;;;;;;17.67;6.78;;;34.00;71.60;;;;;;5085118;28;20046;-74
2023/06/27 12:35:17;;;;;;;7.68;6.15;;;34.20;76.60;;;;;;5083726;28;20036;-74
2023/06/27 12:37:46;;;;;;;12.52;6.50;;;34.20;73.90;;;;;;5082716;28;20016;-74
2023/06/27 12:40:15;;;;;;;8.95;6.65;;;34.30;73.20;;;;;;5082311;28;20020;-74
2023/06/27 12:42:42;;;;;;;8.30;6.07;;;34.40;73.50;;;;;;5079478;28;20408;-74
2023/06/27 12:45:09;;;;;;;11.88;6.47;;;34.50;72.40;;;;;;5089181;28;20016;-74
2023/06/27 12:47:36;;;;;;;9.70;6.43;;;34.50;69.90;;;;;;5081657;28;20063;-74